< < Back
Terminal Aerodrome Forecast


Current Version              Previous Versions:   1  2  3  4  5  6  7  8  9  

Terminal Aerodrome Forecast

205
FTUS42 KGSP 090536
TAFAND
TAF
KAND 090536Z 0906/1006 29011KT P6SM SCT070
     FM091200 26009KT P6SM SCT040
     FM091600 26013G22KT P6SM BKN040
     FM100200 27009KT P6SM BKN045=

Latest METAR

539
SAUS70 KWBC 090500 RRD
MTRAND
METAR KAND 090456Z AUTO 29016G26KT 10SM OVC070 03/M07 A2973 RMK AO2 PK
WND 28027/0428 SLP066 T00331067 401171011


USA.gov is the U.S. government's official web portal to all federal, state and local government web resources and services.